CFS weather

Coffs Harbour Airport
Coffs Harbour, New South Wales, Australia

Public forecast

Using degrees Celsius for public forecast. Weather courtesy of forecast.io.

METAR (pilot weather report)

Closest report is Grafton Airport, 34.0 nm (62.9 km) N. Retrieved 2018/07/18 11:00 UTC (15 minutes ago):

YGFN 181100Z AUTO 18004KT 9999 // NCD 09/05 Q1020

TAF (pilot weather forecast)

Closest forecast is Taree Airport, 99.1 nm (183.5 km) SSW. Retrieved 2018/07/18 06:03 UTC (5 hours ago):

TAF YTRE 180651Z 1806/1820 09007KT CAVOK BECMG 1808/1810 30004KT CAVOK